createdAt,value
2022-08-19T00:02:18.087Z,55.54
2022-08-19T00:05:21.328Z,55.28
2022-08-19T00:08:23.373Z,55.89
2022-08-19T00:11:26.446Z,56.12
2022-08-19T00:14:32.783Z,56.07
2022-08-19T00:17:34.820Z,56.16
2022-08-19T00:20:37.542Z,55.59
2022-08-19T00:23:39.160Z,55.60
2022-08-19T00:26:42.180Z,55.36
2022-08-19T00:29:43.812Z,55.23
2022-08-19T00:32:46.152Z,55.37
2022-08-19T00:35:47.898Z,55.20
2022-08-19T00:38:57.970Z,54.78
2022-08-19T00:41:59.705Z,55.09
2022-08-19T00:45:01.774Z,55.21
2022-08-19T00:48:14.809Z,55.16
2022-08-19T00:51:17.322Z,55.00
2022-08-19T00:54:24.860Z,54.34
2022-08-19T00:57:39.872Z,54.32
2022-08-19T01:00:42.346Z,54.50
2022-08-19T01:03:56.564Z,55.21
2022-08-19T01:07:00.323Z,54.86
2022-08-19T01:10:02.769Z,55.18
2022-08-19T01:13:05.959Z,55.55
2022-08-19T01:16:11.213Z,54.67
2022-08-19T01:19:27.295Z,54.62
2022-08-19T01:22:34.066Z,54.71
2022-08-19T01:25:55.429Z,54.62
2022-08-19T01:29:00.820Z,54.75
2022-08-19T01:32:03.246Z,54.94
2022-08-19T01:35:05.594Z,54.81
2022-08-19T01:38:11.201Z,55.20
2022-08-19T01:41:14.237Z,55.28
2022-08-19T01:44:18.755Z,55.62
2022-08-19T01:47:21.133Z,55.71
2022-08-19T01:50:23.196Z,57.15
2022-08-19T01:53:26.718Z,56.49
2022-08-19T01:56:35.425Z,56.51
2022-08-19T01:59:37.559Z,56.89
2022-08-19T02:02:39.511Z,56.57
2022-08-19T02:05:42.951Z,56.80
2022-08-19T02:08:47.264Z,56.53
2022-08-19T02:11:49.761Z,56.40
2022-08-19T02:14:51.427Z,56.14
2022-08-19T02:17:53.144Z,56.48
2022-08-19T02:20:55.107Z,56.50
2022-08-19T02:23:57.474Z,57.25
2022-08-19T02:26:59.848Z,57.06
2022-08-19T02:30:02.220Z,56.26
2022-08-19T02:33:04.109Z,56.92
2022-08-19T02:36:07.690Z,57.69
2022-08-19T02:39:10.775Z,58.36
2022-08-19T02:42:13.432Z,58.10
2022-08-19T02:45:15.691Z,59.01
2022-08-19T02:48:21.880Z,58.89
2022-08-19T02:51:32.422Z,58.34
2022-08-19T02:54:34.721Z,58.63
2022-08-19T02:57:36.837Z,58.85
2022-08-19T03:00:44.716Z,58.43
2022-08-19T03:03:47.500Z,58.06
2022-08-19T03:06:50.335Z,59.24
2022-08-19T03:09:51.951Z,59.42
2022-08-19T03:12:53.890Z,58.91
2022-08-19T03:15:55.942Z,58.71
2022-08-19T03:19:01.183Z,59.84
2022-08-19T03:22:03.688Z,60.48
2022-08-19T03:25:05.788Z,61.06
2022-08-19T03:28:08.421Z,60.74
2022-08-19T03:31:44.719Z,60.60
2022-08-19T03:34:39.287Z,61.09
2022-08-19T03:37:41.027Z,61.01
2022-08-19T03:40:44.000Z,60.67
2022-08-19T03:43:50.772Z,60.87
2022-08-19T03:46:58.795Z,60.56
2022-08-19T03:50:00.661Z,60.43
2022-08-19T03:53:02.629Z,60.33
2022-08-19T03:56:04.547Z,60.56
2022-08-19T03:59:08.998Z,60.39
2022-08-19T04:02:12.897Z,60.60
2022-08-19T04:05:16.201Z,60.61
2022-08-19T04:08:21.157Z,60.46
2022-08-19T04:11:43.190Z,60.98
2022-08-19T04:14:45.793Z,60.91
2022-08-19T04:17:47.684Z,61.41
2022-08-19T04:20:50.740Z,61.23
2022-08-19T04:23:53.697Z,60.03
2022-08-19T04:26:57.624Z,59.94
2022-08-19T04:29:59.281Z,59.66
2022-08-19T04:33:00.912Z,60.17
2022-08-19T04:36:02.749Z,60.49
2022-08-19T04:39:08.704Z,59.65
2022-08-19T04:42:30.848Z,60.08
2022-08-19T04:45:43.518Z,59.98
2022-08-19T04:48:49.647Z,59.29
2022-08-19T04:51:55.269Z,59.97
2022-08-19T04:54:57.199Z,59.79
2022-08-19T04:57:58.829Z,60.30
2022-08-19T05:01:01.915Z,59.75
2022-08-19T05:04:06.583Z,59.11
2022-08-19T05:07:08.967Z,59.35
2022-08-19T05:10:11.082Z,59.82
2022-08-19T05:13:12.912Z,59.57
2022-08-19T05:16:15.549Z,59.28
2022-08-19T05:19:35.834Z,59.04
2022-08-19T05:22:38.613Z,58.56
2022-08-19T05:25:41.439Z,59.14
2022-08-19T05:28:43.414Z,58.87
2022-08-19T05:31:46.373Z,58.04
2022-08-19T05:34:48.220Z,58.18
2022-08-19T05:37:49.896Z,57.61
2022-08-19T05:40:57.088Z,57.29
2022-08-19T05:44:01.833Z,57.50
2022-08-19T05:47:05.803Z,57.03
2022-08-19T05:50:07.901Z,56.68
2022-08-19T05:53:09.987Z,55.28
2022-08-19T05:56:17.060Z,55.32
2022-08-19T05:59:22.518Z,55.23
2022-08-19T06:02:32.013Z,55.22
2022-08-19T06:05:33.895Z,54.89
2022-08-19T06:08:51.710Z,54.52
2022-08-19T06:11:56.955Z,54.38
2022-08-19T06:15:01.023Z,54.52
2022-08-19T06:18:03.460Z,53.90
2022-08-19T06:21:05.531Z,52.95
2022-08-19T06:24:09.861Z,53.09
2022-08-19T06:27:11.509Z,52.61
2022-08-19T06:30:13.629Z,52.38
2022-08-19T06:33:15.263Z,52.05
2022-08-19T06:36:32.814Z,51.29
2022-08-19T06:39:39.181Z,50.28
2022-08-19T06:42:49.467Z,50.62
2022-08-19T06:45:56.288Z,49.45
2022-08-19T06:48:59.082Z,49.01
2022-08-19T06:52:01.882Z,49.06
2022-08-19T06:55:06.160Z,48.27
2022-08-19T06:58:08.596Z,48.33
2022-08-19T07:01:11.447Z,47.50
2022-08-19T07:04:14.964Z,47.66
2022-08-19T07:07:19.672Z,46.72
2022-08-19T07:10:22.163Z,46.28
2022-08-19T07:13:25.395Z,45.87
2022-08-19T07:16:29.465Z,44.87
2022-08-19T07:19:32.532Z,45.26
2022-08-19T07:22:35.826Z,44.59
2022-08-19T07:25:39.302Z,43.80
2022-08-19T07:28:45.985Z,43.90
2022-08-19T07:31:48.970Z,43.69
2022-08-19T07:34:53.598Z,42.84
2022-08-19T07:37:55.408Z,42.49
2022-08-19T07:40:57.250Z,40.84
2022-08-19T07:44:04.723Z,40.13
2022-08-19T07:47:06.419Z,39.31
2022-08-19T07:50:12.361Z,38.71
2022-08-19T07:53:14.307Z,38.00
2022-08-19T07:56:16.269Z,36.11
2022-08-19T07:59:19.013Z,35.66
2022-08-19T08:02:20.671Z,35.06
2022-08-19T08:05:43.658Z,33.50
2022-08-19T08:09:04.402Z,32.44
2022-08-19T08:12:33.703Z,31.62
2022-08-19T08:15:42.599Z,30.43
2022-08-19T08:18:50.735Z,31.15
2022-08-19T08:22:00.676Z,30.18
2022-08-19T08:25:12.943Z,28.83
2022-08-19T08:28:18.155Z,28.55
2022-08-19T08:31:20.480Z,29.39
2022-08-19T08:34:22.401Z,28.59
2022-08-19T08:37:24.241Z,28.86
2022-08-19T08:40:46.874Z,27.31
2022-08-19T08:43:53.007Z,26.49
2022-08-19T08:46:59.805Z,27.17
2022-08-19T08:50:15.802Z,25.00
2022-08-19T08:53:29.243Z,25.08
2022-08-19T08:56:32.689Z,24.36
2022-08-19T08:59:38.766Z,22.63
2022-08-19T09:02:40.561Z,22.46
2022-08-19T09:06:20.517Z,22.32
2022-08-19T09:09:33.565Z,22.56
2022-08-19T09:13:09.159Z,21.73
2022-08-19T09:16:18.182Z,20.09
2022-08-19T09:19:22.839Z,20.90
2022-08-19T09:22:26.143Z,19.48
2022-08-19T09:25:29.630Z,19.99
2022-08-19T09:28:32.618Z,19.53
2022-08-19T09:31:34.431Z,18.92
2022-08-19T09:34:38.045Z,20.02
2022-08-19T09:37:45.813Z,18.59
2022-08-19T09:40:47.439Z,18.11
2022-08-19T09:43:53.209Z,17.81
2022-08-19T09:46:55.110Z,17.35
2022-08-19T09:49:56.849Z,15.98
2022-08-19T09:53:00.197Z,14.87
2022-08-19T09:56:04.154Z,17.17
2022-08-19T09:59:06.038Z,16.23
2022-08-19T10:02:10.807Z,15.86
2022-08-19T10:05:31.920Z,16.29
2022-08-19T10:08:36.393Z,16.51
2022-08-19T10:11:46.861Z,16.99
2022-08-19T10:14:55.495Z,18.14
2022-08-19T10:17:58.717Z,16.90
2022-08-19T10:21:11.683Z,16.20
2022-08-19T10:24:13.619Z,16.74
2022-08-19T10:27:15.756Z,17.56
2022-08-19T10:30:17.966Z,20.44
2022-08-19T10:33:38.573Z,19.57
2022-08-19T10:36:55.867Z,20.12
2022-08-19T10:39:59.652Z,21.58
2022-08-19T10:43:01.410Z,23.04
2022-08-19T10:46:03.116Z,22.99
2022-08-19T10:49:06.773Z,23.42
2022-08-19T10:52:39.003Z,23.15
2022-08-19T10:55:59.793Z,24.06
2022-08-19T10:59:02.160Z,24.85
2022-08-19T11:02:06.750Z,24.45
2022-08-19T11:05:12.678Z,24.32
2022-08-19T11:08:21.202Z,24.30
2022-08-19T11:11:25.401Z,23.79
2022-08-19T11:14:27.035Z,23.76
2022-08-19T11:17:34.131Z,24.56
2022-08-19T11:20:35.803Z,24.92
2022-08-19T11:23:37.619Z,23.30
2022-08-19T11:26:42.157Z,23.37
2022-08-19T11:29:43.769Z,23.36
2022-08-19T11:32:49.244Z,22.76
2022-08-19T11:35:51.455Z,23.88
2022-08-19T11:38:54.047Z,24.30
2022-08-19T11:41:56.530Z,24.20
2022-08-19T11:44:58.350Z,23.72
2022-08-19T11:48:00.134Z,24.90
2022-08-19T11:51:07.211Z,24.65
2022-08-19T11:54:09.182Z,23.38
2022-08-19T11:57:10.812Z,23.48
2022-08-19T12:00:13.910Z,23.44
2022-08-19T12:03:15.813Z,23.49
2022-08-19T12:06:24.289Z,23.47
2022-08-19T12:09:26.038Z,23.30
2022-08-19T12:12:32.726Z,23.13
2022-08-19T12:15:39.234Z,23.09
2022-08-19T12:18:43.813Z,22.75
2022-08-19T12:21:45.512Z,23.15
2022-08-19T12:24:47.530Z,22.05
2022-08-19T12:27:57.317Z,22.58
2022-08-19T12:30:59.481Z,23.12
2022-08-19T12:34:03.590Z,21.62
2022-08-19T12:37:07.317Z,22.07
2022-08-19T12:40:09.738Z,22.52
2022-08-19T12:43:12.662Z,21.78
2022-08-19T12:46:15.873Z,21.25
2022-08-19T12:49:30.438Z,21.37
2022-08-19T12:52:43.469Z,21.76
2022-08-19T12:55:45.245Z,20.32
2022-08-19T12:58:48.605Z,19.17
2022-08-19T13:01:51.131Z,18.46
2022-08-19T13:04:52.925Z,18.13
2022-08-19T13:07:57.223Z,16.23
2022-08-19T13:10:59.334Z,14.20
2022-08-19T13:14:03.546Z,13.49
2022-08-19T13:17:05.309Z,13.12
2022-08-19T13:20:09.840Z,12.64
2022-08-19T13:23:11.543Z,12.15
2022-08-19T13:26:14.139Z,13.86
2022-08-19T13:29:34.708Z,14.68
2022-08-19T13:32:55.184Z,13.89
2022-08-19T13:36:01.646Z,14.84
2022-08-19T13:39:04.315Z,13.73
2022-08-19T13:42:07.210Z,13.21
2022-08-19T13:45:09.885Z,12.20
2022-08-19T13:48:11.681Z,12.13
2022-08-19T13:51:13.462Z,13.28
2022-08-19T13:54:15.206Z,12.79
2022-08-19T13:57:17.234Z,14.03
2022-08-19T14:00:20.159Z,13.39
2022-08-19T14:03:21.952Z,13.34
2022-08-19T14:06:24.181Z,12.99
2022-08-19T14:09:25.930Z,13.04
2022-08-19T14:12:28.800Z,15.13
2022-08-19T14:15:31.115Z,15.76
2022-08-19T14:18:32.933Z,14.92
2022-08-19T14:21:38.584Z,14.48
2022-08-19T14:24:43.239Z,14.80
2022-08-19T14:27:50.295Z,14.30
2022-08-19T14:30:56.626Z,15.59
2022-08-19T14:33:58.384Z,17.66
2022-08-19T14:37:00.623Z,16.96
2022-08-19T14:40:04.930Z,17.60
2022-08-19T14:43:06.679Z,19.25
2022-08-19T14:46:09.170Z,19.14
2022-08-19T14:49:12.296Z,19.44
2022-08-19T14:52:14.472Z,19.49
2022-08-19T14:55:18.218Z,20.09
2022-08-19T14:58:29.012Z,20.36
2022-08-19T15:01:32.015Z,20.36
2022-08-19T15:04:33.949Z,20.42
2022-08-19T15:07:35.735Z,21.01
2022-08-19T15:10:40.229Z,20.75
2022-08-19T15:13:42.447Z,20.89
2022-08-19T15:16:44.198Z,21.22
2022-08-19T15:19:47.094Z,21.18
2022-08-19T15:22:49.626Z,21.02
2022-08-19T15:25:55.962Z,21.37
2022-08-19T15:28:59.510Z,21.83
2022-08-19T15:32:01.587Z,21.73
2022-08-19T15:35:04.754Z,21.75
2022-08-19T15:38:07.843Z,21.96
2022-08-19T15:41:26.068Z,21.97
2022-08-19T15:44:27.994Z,22.47
2022-08-19T15:47:35.207Z,22.58
2022-08-19T15:50:39.601Z,22.64
2022-08-19T15:53:42.660Z,23.97
2022-08-19T15:57:02.860Z,23.23
2022-08-19T16:00:23.742Z,23.29
2022-08-19T16:03:47.372Z,22.80
2022-08-19T16:06:55.347Z,26.35
2022-08-19T16:09:57.109Z,27.90
2022-08-19T16:12:59.378Z,30.61
2022-08-19T16:16:01.103Z,31.61
2022-08-19T16:19:10.149Z,32.08
2022-08-19T16:22:12.190Z,32.67
2022-08-19T16:25:14.888Z,33.20
2022-08-19T16:28:16.629Z,33.48
2022-08-19T16:31:18.246Z,33.56
2022-08-19T16:34:20.169Z,33.97
2022-08-19T16:37:23.245Z,34.75
2022-08-19T16:40:25.253Z,34.79
2022-08-19T16:43:29.033Z,35.21
2022-08-19T16:46:30.661Z,35.39
2022-08-19T16:49:53.100Z,35.65
2022-08-19T16:52:54.827Z,36.13
2022-08-19T16:55:57.595Z,36.51
2022-08-19T16:59:02.446Z,37.02
2022-08-19T17:02:04.347Z,37.01
2022-08-19T17:05:10.186Z,37.37
2022-08-19T17:08:12.119Z,37.86
2022-08-19T17:11:18.479Z,38.14
2022-08-19T17:14:21.964Z,38.15
2022-08-19T17:17:28.349Z,38.53
2022-08-19T17:20:32.574Z,38.29
2022-08-19T17:23:36.677Z,37.95
2022-08-19T17:26:45.559Z,37.81
2022-08-19T17:29:47.411Z,37.48
2022-08-19T17:32:49.126Z,36.76
2022-08-19T17:35:50.860Z,36.46
2022-08-19T17:38:55.400Z,36.10
2022-08-19T17:41:57.416Z,35.42
2022-08-19T17:45:05.989Z,35.32
2022-08-19T17:48:09.247Z,35.41
2022-08-19T17:51:15.512Z,35.30
2022-08-19T17:54:19.493Z,35.47
2022-08-19T17:57:21.196Z,35.33
2022-08-19T18:00:23.222Z,35.05
2022-08-19T18:03:30.303Z,35.11
2022-08-19T18:06:32.071Z,35.09
2022-08-19T18:09:42.586Z,35.09
2022-08-19T18:12:44.606Z,35.34
2022-08-19T18:15:47.433Z,35.73
2022-08-19T18:18:49.661Z,36.33
2022-08-19T18:21:51.508Z,36.29
2022-08-19T18:24:54.108Z,36.46
2022-08-19T18:27:58.682Z,36.30
2022-08-19T18:31:01.454Z,36.88
2022-08-19T18:34:03.238Z,37.30
2022-08-19T18:37:05.225Z,37.00
2022-08-19T18:40:27.836Z,37.97
2022-08-19T18:43:47.930Z,37.38
2022-08-19T18:47:08.003Z,37.10
2022-08-19T18:50:10.242Z,36.89
2022-08-19T18:53:14.039Z,36.62
2022-08-19T18:56:19.021Z,36.43
2022-08-19T18:59:21.185Z,36.35
2022-08-19T19:02:27.810Z,36.38
2022-08-19T19:05:29.414Z,36.49
2022-08-19T19:08:31.062Z,37.14
2022-08-19T19:11:37.345Z,37.36
2022-08-19T19:14:49.866Z,37.75
2022-08-19T19:17:52.095Z,37.77
2022-08-19T19:20:54.533Z,38.48
2022-08-19T19:23:56.404Z,38.43
2022-08-19T19:27:01.442Z,38.46
2022-08-19T19:30:03.658Z,38.00
2022-08-19T19:33:05.494Z,38.27
2022-08-19T19:36:07.904Z,38.26
2022-08-19T19:39:09.815Z,38.44
2022-08-19T19:42:19.670Z,38.57
2022-08-19T19:45:22.972Z,39.03
2022-08-19T19:48:24.976Z,38.99
2022-08-19T19:51:30.362Z,39.19
2022-08-19T19:54:37.939Z,39.37
2022-08-19T19:57:40.432Z,39.37
2022-08-19T20:00:42.220Z,39.63
2022-08-19T20:03:44.710Z,39.54
2022-08-19T20:06:47.165Z,39.51
2022-08-19T20:09:59.643Z,39.68
2022-08-19T20:13:03.185Z,39.70
2022-08-19T20:16:04.947Z,39.84
2022-08-19T20:19:07.685Z,39.82
2022-08-19T20:22:09.317Z,39.89
2022-08-19T20:25:15.117Z,40.17
2022-08-19T20:28:17.590Z,40.21
2022-08-19T20:31:19.614Z,40.19
2022-08-19T20:34:21.743Z,39.70
2022-08-19T20:37:23.483Z,39.27
2022-08-19T20:40:29.514Z,39.00
2022-08-19T20:43:31.678Z,39.50
2022-08-19T20:46:34.199Z,39.69
2022-08-19T20:49:35.894Z,39.39
2022-08-19T20:52:39.284Z,39.91
2022-08-19T20:55:45.204Z,40.30
2022-08-19T20:58:53.498Z,40.58
2022-08-19T21:01:57.656Z,41.22
2022-08-19T21:04:59.443Z,41.83
2022-08-19T21:08:04.663Z,42.41
2022-08-19T21:11:07.672Z,43.15
2022-08-19T21:14:09.540Z,44.07
2022-08-19T21:17:11.620Z,44.69
2022-08-19T21:20:13.505Z,45.03
2022-08-19T21:23:21.460Z,45.31
2022-08-19T21:26:24.409Z,45.86
2022-08-19T21:29:26.216Z,46.57
2022-08-19T21:32:27.973Z,47.17
2022-08-19T21:35:30.334Z,47.96
2022-08-19T21:38:32.064Z,48.35
2022-08-19T21:41:33.730Z,48.95
2022-08-19T21:44:37.637Z,49.33
2022-08-19T21:47:39.681Z,49.86
2022-08-19T21:50:42.721Z,50.43
2022-08-19T21:53:47.852Z,51.16
2022-08-19T21:56:50.498Z,52.02
2022-08-19T21:59:52.986Z,52.40
2022-08-19T22:02:55.825Z,52.88
2022-08-19T22:05:58.658Z,53.30
2022-08-19T22:09:00.420Z,53.81
2022-08-19T22:12:02.289Z,54.07
2022-08-19T22:15:07.295Z,54.21
2022-08-19T22:18:09.124Z,54.60
2022-08-19T22:21:12.107Z,54.75
2022-08-19T22:24:14.308Z,54.75
2022-08-19T22:27:16.275Z,54.51
2022-08-19T22:30:20.576Z,54.97
2022-08-19T22:33:22.942Z,54.99
2022-08-19T22:36:24.628Z,55.04
2022-08-19T22:39:26.350Z,55.35
2022-08-19T22:42:31.915Z,55.82
2022-08-19T22:45:36.404Z,56.24
2022-08-19T22:48:38.627Z,56.72
2022-08-19T22:51:59.205Z,56.88
2022-08-19T22:55:04.663Z,57.05
2022-08-19T22:58:06.411Z,57.57
2022-08-19T23:01:08.477Z,57.38
2022-08-19T23:04:10.875Z,57.88
2022-08-19T23:07:12.857Z,57.86
2022-08-19T23:10:14.653Z,57.96
2022-08-19T23:13:31.760Z,57.12
2022-08-19T23:16:34.870Z,57.27
2022-08-19T23:19:38.539Z,56.86
2022-08-19T23:22:41.859Z,56.22
2022-08-19T23:25:43.493Z,56.67
2022-08-19T23:29:04.261Z,56.33
2022-08-19T23:32:07.175Z,55.95
2022-08-19T23:35:09.205Z,55.67
2022-08-19T23:38:10.848Z,55.30
2022-08-19T23:41:14.972Z,51.59
2022-08-19T23:44:17.465Z,54.43
2022-08-19T23:47:21.498Z,54.24
2022-08-19T23:50:26.931Z,53.97
2022-08-19T23:53:29.453Z,54.02
2022-08-19T23:56:31.068Z,55.28
2022-08-19T23:59:32.984Z,55.33
